Time;durP1;ratioP1;P1;durP2;ratioP2;P2;SDS_P1;SDS_P2;PMS_P1;PMS_P2;Temp;Humidity;BMP_temperature;BMP_pressure;BME280_temperature;BME280_humidity;BME280_pressure;Samples;Min_cycle;Max_cycle;Signal;HPM_P1;HPM_P2
2021/07/07 00:00:48;;;;;;;4.60;2.00;;;15.60;81.00;;;;;;5078380;28;20115;-37
2021/07/07 00:03:13;;;;;;;5.22;1.80;;;15.50;81.60;;;;;;5096051;28;20028;-37
2021/07/07 00:05:39;;;;;;;5.72;2.15;;;15.50;81.60;;;;;;5095818;28;20428;-36
2021/07/07 00:08:05;;;;;;;6.50;2.38;;;15.30;81.90;;;;;;5095951;28;20483;-37
2021/07/07 00:10:34;;;;;;;7.28;3.05;;;15.30;81.90;;;;;;5078011;28;20020;-37
2021/07/07 00:13:00;;;;;;;5.93;1.88;;;15.30;81.90;;;;;;5077616;28;20387;-37
2021/07/07 00:15:31;;;;;;;6.22;2.20;;;15.30;82.20;;;;;;5096655;28;20370;-36
2021/07/07 00:17:56;;;;;;;4.78;2.28;;;15.30;82.30;;;;;;5095664;28;20131;-37
2021/07/07 00:20:22;;;;;;;7.00;2.22;;;15.30;82.60;;;;;;5077508;28;20028;-36
2021/07/07 00:22:49;;;;;;;8.88;2.28;;;15.20;82.70;;;;;;5095554;28;20085;-36
2021/07/07 00:25:15;;;;;;;9.77;3.80;;;15.20;82.90;;;;;;5095444;28;20028;-37
2021/07/07 00:27:41;;;;;;;3.33;2.35;;;15.20;83.00;;;;;;5095289;28;20028;-36
2021/07/07 00:30:08;;;;;;;11.13;3.35;;;15.20;83.00;;;;;;5077113;28;20024;-36
2021/07/07 00:32:34;;;;;;;7.85;2.53;;;15.10;83.20;;;;;;5095552;28;20024;-45
2021/07/07 00:35:00;;;;;;;8.80;2.67;;;15.10;83.20;;;;;;5095068;28;20058;-37
2021/07/07 00:37:25;;;;;;;6.75;2.70;;;15.10;83.20;;;;;;5095403;28;20032;-48
2021/07/07 00:39:51;;;;;;;30.38;4.63;;;15.20;83.20;;;;;;5095083;28;20092;-36
2021/07/07 00:42:17;;;;;;;5.43;2.30;;;15.10;83.30;;;;;;5095420;28;20055;-36
2021/07/07 00:44:42;;;;;;;7.70;2.72;;;15.10;83.20;;;;;;5095267;28;20024;-36
2021/07/07 00:47:08;;;;;;;7.00;2.20;;;15.10;83.50;;;;;;5095061;28;20073;-36
2021/07/07 00:49:34;;;;;;;10.55;2.95;;;15.00;83.70;;;;;;5095108;28;20073;-36
2021/07/07 00:52:02;;;;;;;7.00;2.15;;;15.00;84.00;;;;;;5095170;28;20479;-36
2021/07/07 00:54:31;;;;;;;3.63;1.85;;;14.90;84.20;;;;;;5094811;28;20035;-36
2021/07/07 00:56:58;;;;;;;4.63;2.05;;;14.90;84.00;;;;;;5094994;28;20034;-36
2021/07/07 00:59:25;;;;;;;9.63;3.15;;;14.90;84.10;;;;;;5094937;28;20028;-37
2021/07/07 01:01:53;;;;;;;5.13;2.80;;;14.90;84.30;;;;;;5094687;28;20024;-36
2021/07/07 01:04:19;;;;;;;4.05;2.42;;;14.90;84.30;;;;;;5094505;28;20046;-36
2021/07/07 01:06:45;;;;;;;4.63;2.83;;;14.90;84.10;;;;;;5094450;28;20107;-36
2021/07/07 01:09:11;;;;;;;7.82;2.70;;;14.90;84.20;;;;;;5094398;28;20024;-36
2021/07/07 01:11:36;;;;;;;7.10;2.83;;;14.90;84.10;;;;;;5094665;28;20049;-36
2021/07/07 01:14:03;;;;;;;7.35;2.15;;;15.00;83.90;;;;;;5094625;28;20104;-36
2021/07/07 01:16:28;;;;;;;4.47;2.40;;;15.00;83.70;;;;;;5094363;28;20492;-36
2021/07/07 01:18:55;;;;;;;8.15;2.17;;;14.90;84.20;;;;;;5076552;28;20028;-36
2021/07/07 01:21:22;;;;;;;5.75;3.15;;;14.90;84.40;;;;;;5075956;28;20065;-47
2021/07/07 01:23:51;;;;;;;4.97;2.15;;;14.80;84.60;;;;;;5094096;28;20153;-36
2021/07/07 01:26:17;;;;;;;7.30;2.15;;;14.80;84.90;;;;;;5075801;28;20024;-36
2021/07/07 01:28:43;;;;;;;5.93;2.42;;;14.70;84.70;;;;;;5075943;28;20361;-36
2021/07/07 01:31:09;;;;;;;5.55;2.35;;;14.80;84.70;;;;;;5094044;28;20020;-36
2021/07/07 01:33:35;;;;;;;4.13;1.98;;;14.80;84.70;;;;;;5093956;28;20077;-36
2021/07/07 01:36:00;;;;;;;4.30;2.20;;;14.80;84.30;;;;;;5094307;28;20059;-36
2021/07/07 01:38:26;;;;;;;9.00;2.50;;;14.80;84.40;;;;;;5094209;28;20028;-36
2021/07/07 01:40:57;;;;;;;7.20;2.25;;;14.80;84.30;;;;;;5094238;28;20028;-37
2021/07/07 01:43:22;;;;;;;4.53;2.15;;;14.80;84.40;;;;;;5093967;28;20499;-36
2021/07/07 01:45:48;;;;;;;6.03;2.33;;;14.80;84.50;;;;;;5093704;28;20058;-37
2021/07/07 01:48:14;;;;;;;5.70;2.42;;;14.70;84.80;;;;;;5075498;28;20539;-36
2021/07/07 01:50:40;;;;;;;6.28;3.35;;;14.80;84.50;;;;;;5093330;28;20055;-36
2021/07/07 01:53:05;;;;;;;9.00;2.72;;;14.70;84.50;;;;;;5093729;28;20052;-36
2021/07/07 01:55:31;;;;;;;4.25;2.38;;;14.70;84.70;;;;;;5093698;28;20050;-36
2021/07/07 01:57:57;;;;;;;4.90;2.10;;;14.60;84.70;;;;;;5093749;28;20032;-36
2021/07/07 02:00:29;;;;;;;4.28;2.30;;;14.60;84.80;;;;;;5093617;28;20063;-36
2021/07/07 02:02:56;;;;;;;7.82;2.88;;;14.60;84.80;;;;;;5093443;28;20064;-36
2021/07/07 02:05:29;;;;;;;7.22;2.92;;;14.60;84.80;;;;;;5093801;28;20428;-36
2021/07/07 02:07:56;;;;;;;5.07;2.60;;;14.60;85.10;;;;;;5093445;28;20483;-37
2021/07/07 02:10:22;;;;;;;7.45;2.30;;;14.50;85.00;;;;;;5093399;28;20561;-45
2021/07/07 02:12:49;;;;;;;5.05;2.33;;;14.50;85.20;;;;;;5094203;28;20439;-44
2021/07/07 02:15:19;;;;;;;8.65;2.97;;;14.50;85.00;;;;;;5093435;28;20481;-37
2021/07/07 02:17:45;;;;;;;8.43;2.65;;;14.40;85.00;;;;;;5093498;28;20024;-36
2021/07/07 02:20:13;;;;;;;9.50;2.75;;;14.40;85.50;;;;;;5093165;28;20096;-37
2021/07/07 02:22:39;;;;;;;7.40;2.75;;;14.40;85.00;;;;;;5093564;28;20034;-37
2021/07/07 02:25:07;;;;;;;6.18;2.60;;;14.30;85.30;;;;;;5093232;28;20031;-36
2021/07/07 02:27:33;;;;;;;6.78;2.50;;;14.30;85.60;;;;;;5075301;28;20032;-37
2021/07/07 02:29:59;;;;;;;6.68;3.20;;;14.30;85.50;;;;;;5093022;28;20539;-37
2021/07/07 02:32:25;;;;;;;5.75;3.20;;;14.30;85.70;;;;;;5093618;28;20016;-37
2021/07/07 02:34:50;;;;;;;6.60;2.90;;;14.20;85.90;;;;;;5043917;28;20045;-36
2021/07/07 02:37:16;;;;;;;4.90;2.80;;;14.20;85.80;;;;;;5053056;28;20437;-36
2021/07/07 02:39:42;;;;;;;7.22;2.88;;;14.20;86.00;;;;;;5053059;28;20469;-36
2021/07/07 02:42:07;;;;;;;5.80;3.15;;;14.30;85.80;;;;;;5051488;28;20025;-37
2021/07/07 02:44:33;;;;;;;9.40;3.03;;;14.20;85.90;;;;;;5053085;28;20025;-37
2021/07/07 02:46:59;;;;;;;6.30;3.03;;;14.10;86.00;;;;;;5052885;28;20029;-36
2021/07/07 02:49:25;;;;;;;8.13;3.20;;;14.20;85.80;;;;;;5052779;28;20377;-36
2021/07/07 02:51:51;;;;;;;9.95;3.08;;;14.30;85.50;;;;;;5052657;28;20022;-37
2021/07/07 02:54:17;;;;;;;6.53;2.42;;;14.30;85.30;;;;;;5051430;28;20032;-37
2021/07/07 02:56:42;;;;;;;12.88;3.08;;;14.20;85.50;;;;;;5052715;28;20385;-36
2021/07/07 02:59:08;;;;;;;5.55;3.05;;;14.20;85.80;;;;;;5052633;28;20032;-36
2021/07/07 03:01:34;;;;;;;11.48;3.05;;;14.20;85.70;;;;;;5053110;28;20479;-37
2021/07/07 03:03:59;;;;;;;15.73;3.33;;;14.20;85.70;;;;;;5057204;28;20488;-36
2021/07/07 03:06:25;;;;;;;8.63;3.25;;;14.20;85.80;;;;;;5056788;28;20380;-37
2021/07/07 03:08:51;;;;;;;5.88;2.80;;;14.20;85.80;;;;;;5056494;28;20033;-37
2021/07/07 03:11:16;;;;;;;7.75;2.80;;;14.10;85.90;;;;;;5056453;28;20021;-37
2021/07/07 03:13:42;;;;;;;5.43;3.58;;;14.10;85.80;;;;;;5056521;28;20025;-36
2021/07/07 03:16:08;;;;;;;7.30;2.97;;;14.10;85.60;;;;;;5055166;28;20469;-37
2021/07/07 03:18:34;;;;;;;8.85;3.38;;;14.10;85.80;;;;;;5056411;28;20029;-36
2021/07/07 03:20:59;;;;;;;7.28;3.58;;;14.20;85.60;;;;;;5056533;28;20035;-36
2021/07/07 03:23:25;;;;;;;9.68;3.25;;;14.10;85.70;;;;;;5056290;28;20472;-36
2021/07/07 03:25:52;;;;;;;7.40;2.83;;;14.20;85.70;;;;;;5056475;28;20063;-36
2021/07/07 03:28:19;;;;;;;8.18;3.22;;;14.20;85.60;;;;;;5056662;28;20025;-36
2021/07/07 03:30:46;;;;;;;8.35;2.80;;;14.20;85.50;;;;;;5056583;28;20064;-36
2021/07/07 03:33:12;;;;;;;8.40;3.70;;;14.20;85.50;;;;;;5054972;28;20032;-36
2021/07/07 03:35:38;;;;;;;8.27;3.20;;;14.20;85.60;;;;;;5091163;28;20124;-36
2021/07/07 03:38:05;;;;;;;7.75;2.95;;;14.20;85.70;;;;;;5096358;28;20112;-36
2021/07/07 03:40:32;;;;;;;12.90;4.00;;;14.20;85.60;;;;;;5096403;28;20475;-36
2021/07/07 03:43:00;;;;;;;7.07;3.63;;;14.10;85.70;;;;;;5096306;28;20044;-36
2021/07/07 03:45:26;;;;;;;7.53;3.15;;;14.10;85.80;;;;;;5096207;28;20024;-35
2021/07/07 03:47:52;;;;;;;10.35;5.00;;;14.10;85.60;;;;;;5096469;28;20059;-36
2021/07/07 03:50:19;;;;;;;10.20;3.17;;;14.10;85.80;;;;;;5096372;28;20419;-36
2021/07/07 03:52:46;;;;;;;12.00;3.55;;;14.10;85.80;;;;;;5077883;28;20110;-36
2021/07/07 03:55:17;;;;;;;9.88;3.30;;;14.20;85.80;;;;;;5096249;28;20032;-43
2021/07/07 03:57:43;;;;;;;7.93;3.83;;;14.10;85.70;;;;;;5096205;28;20364;-36
2021/07/07 04:00:13;;;;;;;8.85;3.70;;;14.10;85.70;;;;;;5096006;28;20058;-36
2021/07/07 04:02:39;;;;;;;11.40;3.80;;;14.20;85.80;;;;;;5078130;28;20031;-36
2021/07/07 04:05:06;;;;;;;9.25;4.32;;;14.20;85.60;;;;;;5095860;28;20028;-36
2021/07/07 04:07:32;;;;;;;9.18;3.25;;;14.20;85.70;;;;;;5096041;28;20103;-36
2021/07/07 04:09:58;;;;;;;8.85;3.22;;;14.20;85.60;;;;;;5096052;28;20491;-36
2021/07/07 04:12:24;;;;;;;9.18;3.90;;;14.20;85.60;;;;;;5095987;28;20024;-36
2021/07/07 04:14:49;;;;;;;9.98;3.65;;;14.20;85.60;;;;;;5076808;28;20016;-36
2021/07/07 04:17:15;;;;;;;6.63;4.22;;;14.20;85.60;;;;;;5095698;28;20520;-36
2021/07/07 04:19:41;;;;;;;15.13;4.07;;;14.30;85.50;;;;;;5095593;28;20074;-36
2021/07/07 04:22:07;;;;;;;6.43;3.28;;;14.20;85.50;;;;;;5095758;28;20103;-36
2021/07/07 04:24:32;;;;;;;9.02;4.03;;;14.30;85.50;;;;;;5095823;28;20020;-45
2021/07/07 04:26:58;;;;;;;8.20;3.10;;;14.30;85.40;;;;;;5095748;28;20140;-45
2021/07/07 04:29:24;;;;;;;4.57;2.83;;;14.30;85.50;;;;;;5095948;28;20058;-37
2021/07/07 04:31:53;;;;;;;7.05;3.58;;;14.30;85.00;;;;;;5095394;28;20032;-37
2021/07/07 04:34:19;;;;;;;7.90;3.35;;;14.30;85.10;;;;;;5095506;28;20444;-36
2021/07/07 04:36:45;;;;;;;8.45;3.17;;;14.40;84.90;;;;;;5095480;28;20097;-36
2021/07/07 04:39:10;;;;;;;7.88;2.65;;;14.70;84.10;;;;;;5096320;28;20028;-36
2021/07/07 04:41:36;;;;;;;7.22;3.38;;;14.80;83.50;;;;;;5095548;28;20529;-36
2021/07/07 04:44:02;;;;;;;6.13;2.88;;;15.00;82.60;;;;;;5095661;28;20028;-36
2021/07/07 04:46:33;;;;;;;12.35;4.45;;;15.30;81.90;;;;;;5096385;28;20517;-37
2021/07/07 04:48:58;;;;;;;12.00;3.80;;;15.40;81.10;;;;;;5078396;28;20077;-36
2021/07/07 04:51:25;;;;;;;5.95;2.25;;;15.50;80.70;;;;;;5096907;28;20028;-36
2021/07/07 04:53:51;;;;;;;9.90;2.55;;;15.30;81.00;;;;;;5077117;28;20046;-36
2021/07/07 04:56:16;;;;;;;9.27;3.35;;;15.40;80.90;;;;;;5095159;28;20099;-36
2021/07/07 04:58:42;;;;;;;11.18;3.25;;;15.40;80.90;;;;;;5094876;28;20024;-36
2021/07/07 05:01:08;;;;;;;8.75;2.75;;;15.50;81.00;;;;;;5094995;28;20060;-36
2021/07/07 05:03:34;;;;;;;20.65;4.35;;;15.60;80.70;;;;;;5094967;28;20028;-36
2021/07/07 05:06:00;;;;;;;9.88;2.60;;;15.60;80.60;;;;;;5094440;28;20024;-36
2021/07/07 05:08:26;;;;;;;11.02;4.55;;;15.70;80.20;;;;;;5076271;28;20020;-36
2021/07/07 05:10:52;;;;;;;6.60;2.55;;;15.70;80.50;;;;;;5094195;28;20031;-38
2021/07/07 05:13:18;;;;;;;11.57;3.50;;;15.80;80.00;;;;;;5094230;28;20072;-36
2021/07/07 05:15:45;;;;;;;7.40;3.58;;;16.00;79.60;;;;;;5094189;28;20044;-36
2021/07/07 05:18:11;;;;;;;5.95;2.65;;;16.10;79.40;;;;;;5094104;28;20028;-36
2021/07/07 05:20:37;;;;;;;9.63;3.05;;;16.20;78.80;;;;;;5094197;28;20367;-36
2021/07/07 05:23:07;;;;;;;9.95;3.10;;;16.30;78.80;;;;;;5094420;28;20085;-36
2021/07/07 05:25:34;;;;;;;9.77;3.15;;;16.20;79.30;;;;;;5093665;28;20097;-36
2021/07/07 05:28:01;;;;;;;11.68;3.13;;;16.20;79.60;;;;;;5075387;28;20031;-36
2021/07/07 05:30:27;;;;;;;12.00;2.78;;;16.30;79.40;;;;;;5075818;28;20402;-36
2021/07/07 05:32:53;;;;;;;19.02;2.78;;;16.50;78.50;;;;;;5093846;28;20016;-36
2021/07/07 05:35:19;;;;;;;4.53;2.15;;;16.50;78.50;;;;;;5093421;28;20093;-37
2021/07/07 05:37:46;;;;;;;7.47;2.70;;;16.50;78.30;;;;;;5093576;28;20030;-36
2021/07/07 05:40:13;;;;;;;12.45;2.88;;;16.80;77.90;;;;;;5093909;28;20027;-36
2021/07/07 05:42:39;;;;;;;5.65;2.20;;;16.80;77.50;;;;;;5076045;28;20032;-37
2021/07/07 05:45:05;;;;;;;9.25;2.53;;;16.90;77.10;;;;;;5093936;28;20031;-37
2021/07/07 05:47:31;;;;;;;6.20;2.20;;;16.90;77.10;;;;;;5075183;28;20429;-37
2021/07/07 05:49:57;;;;;;;8.57;2.60;;;17.00;77.50;;;;;;5093585;28;20027;-37
2021/07/07 05:52:24;;;;;;;10.15;3.53;;;17.30;76.70;;;;;;5093643;28;20028;-37
2021/07/07 05:54:51;;;;;;;6.88;2.72;;;17.30;76.90;;;;;;5093825;28;20420;-37
2021/07/07 05:57:17;;;;;;;15.13;2.85;;;17.40;76.60;;;;;;5093288;28;20024;-39
2021/07/07 05:59:43;;;;;;;15.90;3.55;;;17.50;76.40;;;;;;5092951;28;20106;-37
2021/07/07 06:02:09;;;;;;;18.10;3.55;;;17.60;75.90;;;;;;5074992;28;20032;-37
2021/07/07 06:04:35;;;;;;;14.98;3.20;;;17.80;75.40;;;;;;5093181;28;20434;-37
2021/07/07 06:07:01;;;;;;;10.18;2.58;;;18.00;74.90;;;;;;5092950;28;20020;-37
2021/07/07 06:09:26;;;;;;;5.15;2.17;;;18.20;73.50;;;;;;5093815;28;20027;-37
2021/07/07 06:11:52;;;;;;;10.75;3.03;;;18.20;73.40;;;;;;5093247;28;20020;-37
2021/07/07 06:14:18;;;;;;;6.68;2.33;;;18.20;73.30;;;;;;5093557;28;20103;-37
2021/07/07 06:16:43;;;;;;;7.65;2.85;;;18.10;74.00;;;;;;5075079;28;20499;-37
2021/07/07 06:19:09;;;;;;;8.10;2.63;;;18.30;73.10;;;;;;5093543;28;20024;-37
2021/07/07 06:21:35;;;;;;;6.60;2.97;;;18.50;71.80;;;;;;5093290;28;20028;-37
2021/07/07 06:24:01;;;;;;;6.93;2.58;;;18.70;71.60;;;;;;5093296;28;20024;-38
2021/07/07 06:26:28;;;;;;;6.10;2.85;;;19.00;70.70;;;;;;5093157;28;20032;-37
2021/07/07 06:28:55;;;;;;;15.68;2.42;;;19.30;69.40;;;;;;5093504;28;20026;-38
2021/07/07 06:31:22;;;;;;;8.88;1.70;;;19.40;68.00;;;;;;5093177;28;20027;-37
2021/07/07 06:33:48;;;;;;;10.60;1.90;;;19.80;66.90;;;;;;5092581;28;20028;-38
2021/07/07 06:36:13;;;;;;;5.22;1.95;;;19.80;66.90;;;;;;5093043;28;20517;-37
2021/07/07 06:38:39;;;;;;;10.60;2.00;;;19.90;65.40;;;;;;5092869;28;20019;-38
2021/07/07 06:41:05;;;;;;;8.50;2.75;;;20.30;64.70;;;;;;5092665;28;20479;-36
2021/07/07 06:43:30;;;;;;;7.03;2.22;;;20.30;64.20;;;;;;5092912;28;20024;-36
2021/07/07 06:45:56;;;;;;;10.63;2.08;;;20.40;63.40;;;;;;5074313;28;20063;-37
2021/07/07 06:48:22;;;;;;;10.00;2.38;;;20.20;64.40;;;;;;5092608;28;20073;-37
2021/07/07 06:50:47;;;;;;;5.78;2.90;;;20.50;63.00;;;;;;5092722;28;20079;-37
2021/07/07 06:53:15;;;;;;;5.57;2.35;;;20.90;62.50;;;;;;5074663;28;20075;-37
2021/07/07 06:55:40;;;;;;;6.03;1.90;;;20.50;63.60;;;;;;5093035;28;20020;-37
2021/07/07 06:58:12;;;;;;;7.05;2.33;;;20.20;63.60;;;;;;5092825;28;20055;-37
2021/07/07 07:00:38;;;;;;;17.67;2.17;;;20.40;63.40;;;;;;5094595;28;20032;-36
2021/07/07 07:03:04;;;;;;;8.50;2.45;;;20.50;62.40;;;;;;5074817;28;20040;-39
2021/07/07 07:05:29;;;;;;;4.10;2.47;;;20.80;62.40;;;;;;5092883;28;20028;-38
2021/07/07 07:07:55;;;;;;;11.13;2.65;;;20.80;61.80;;;;;;5094483;28;20093;-38
2021/07/07 07:10:21;;;;;;;7.13;2.15;;;21.30;60.40;;;;;;5092591;28;20016;-37
2021/07/07 07:12:47;;;;;;;12.43;2.92;;;20.90;61.00;;;;;;5074640;28;20020;-37
2021/07/07 07:15:14;;;;;;;12.63;2.65;;;20.50;62.20;;;;;;5092649;28;20051;-36
2021/07/07 07:17:41;;;;;;;6.18;2.17;;;20.60;61.60;;;;;;5092217;28;20111;-37
2021/07/07 07:20:10;;;;;;;6.75;2.10;;;20.70;61.60;;;;;;5074221;28;20039;-36
2021/07/07 07:22:36;;;;;;;11.02;1.70;;;21.00;61.80;;;;;;5092171;28;20454;-37
2021/07/07 07:25:03;;;;;;;4.85;1.95;;;20.30;63.20;;;;;;5093786;28;20032;-40
2021/07/07 07:27:29;;;;;;;6.32;2.60;;;20.50;63.00;;;;;;5092078;28;20027;-42
2021/07/07 07:29:55;;;;;;;6.20;2.05;;;20.20;63.50;;;;;;5091985;28;20023;-37
2021/07/07 07:32:20;;;;;;;7.82;2.00;;;20.40;63.00;;;;;;5092093;28;20020;-37
2021/07/07 07:34:46;;;;;;;5.40;2.13;;;20.30;63.30;;;;;;5074122;28;20052;-37
2021/07/07 07:37:13;;;;;;;6.82;2.25;;;20.70;62.10;;;;;;5092248;28;20356;-37
2021/07/07 07:39:48;;;;;;;7.05;2.28;;;21.10;61.20;;;;;;5092337;28;20028;-36
2021/07/07 07:42:17;;;;;;;6.10;2.67;;;21.40;59.90;;;;;;5091960;28;20062;-36
2021/07/07 07:44:43;;;;;;;7.22;2.33;;;21.50;60.00;;;;;;5092130;28;20024;-36
2021/07/07 07:47:10;;;;;;;7.57;1.92;;;21.80;58.90;;;;;;5092017;28;20419;-37
2021/07/07 07:49:36;;;;;;;8.45;1.90;;;21.60;58.00;;;;;;5076659;28;20016;-37
2021/07/07 07:52:02;;;;;;;10.00;2.20;;;21.40;58.90;;;;;;5079312;28;20020;-43
2021/07/07 07:54:29;;;;;;;4.70;1.90;;;21.30;59.30;;;;;;5096598;28;20024;-35
2021/07/07 07:56:55;;;;;;;6.70;1.67;;;21.50;57.90;;;;;;5096006;28;20422;-36
2021/07/07 07:59:21;;;;;;;4.35;2.00;;;21.80;57.90;;;;;;5095697;28;20055;-36
2021/07/07 08:01:46;;;;;;;5.50;1.77;;;22.20;56.20;;;;;;5095524;28;20117;-37
2021/07/07 08:04:12;;;;;;;4.05;1.92;;;22.00;56.60;;;;;;5095824;28;20422;-37
2021/07/07 08:06:38;;;;;;;5.53;2.30;;;22.30;55.80;;;;;;5100756;28;20032;-37
2021/07/07 08:09:05;;;;;;;11.13;4.50;;;22.40;55.70;;;;;;5077078;28;20056;-38
2021/07/07 08:11:30;;;;;;;8.82;2.78;;;22.40;55.60;;;;;;5095009;28;20051;-41
2021/07/07 08:13:56;;;;;;;4.30;1.45;;;21.90;56.20;;;;;;5077327;28;20071;-37
2021/07/07 08:16:23;;;;;;;8.10;2.25;;;22.30;55.50;;;;;;5077267;28;20074;-37
2021/07/07 08:18:48;;;;;;;7.03;2.50;;;23.40;52.70;;;;;;5095531;28;20024;-37
2021/07/07 08:21:15;;;;;;;8.27;2.72;;;23.50;52.30;;;;;;5095266;28;20486;-37
2021/07/07 08:23:41;;;;;;;7.10;2.35;;;23.00;53.20;;;;;;5095109;28;20028;-37
2021/07/07 08:26:07;;;;;;;6.55;1.63;;;22.30;56.30;;;;;;5095147;28;20024;-38
2021/07/07 08:28:32;;;;;;;21.88;3.85;;;23.00;53.50;;;;;;5095175;28;20378;-36
2021/07/07 08:30:58;;;;;;;13.52;2.97;;;23.10;53.50;;;;;;5096729;28;20031;-36
2021/07/07 08:33:24;;;;;;;7.53;2.10;;;23.30;52.40;;;;;;5076744;28;20126;-36
2021/07/07 08:35:49;;;;;;;6.45;2.40;;;23.90;50.80;;;;;;5094574;28;20044;-37
2021/07/07 08:38:15;;;;;;;11.52;2.83;;;23.50;51.80;;;;;;5095359;28;20043;-37
2021/07/07 08:40:41;;;;;;;8.52;3.65;;;23.90;50.80;;;;;;5095904;28;20028;-38
2021/07/07 08:43:09;;;;;;;6.15;1.83;;;24.20;50.90;;;;;;5077535;28;20043;-38
2021/07/07 08:45:37;;;;;;;7.90;1.90;;;24.10;51.10;;;;;;5077779;28;20020;-37
2021/07/07 08:48:03;;;;;;;5.15;1.55;;;24.90;49.50;;;;;;5096154;28;20024;-37
2021/07/07 08:50:31;;;;;;;6.13;1.90;;;25.10;47.30;;;;;;5095902;28;20024;-49
2021/07/07 08:53:02;;;;;;;5.10;1.88;;;24.10;49.50;;;;;;5077961;28;20105;-49
2021/07/07 08:55:29;;;;;;;4.65;1.80;;;24.30;48.60;;;;;;5095426;28;20073;-51
2021/07/07 08:57:56;;;;;;;8.65;2.55;;;25.00;47.20;;;;;;5094062;28;20095;-47
2021/07/07 09:00:31;;;;;;;8.93;2.25;;;23.80;50.30;;;;;;5094160;28;20099;-48
2021/07/07 09:03:07;;;;;;;3.53;2.15;;;24.80;48.20;;;;;;5094687;28;20039;-48
2021/07/07 09:05:57;;;;;;;8.75;1.70;;;24.30;51.30;;;;;;5094326;28;20059;-48
2021/07/07 09:08:26;;;;;;;7.13;3.00;;;24.90;48.50;;;;;;5077797;28;20024;-49
2021/07/07 09:11:11;;;;;;;6.88;2.05;;;24.80;47.60;;;;;;5093938;28;20028;-50
2021/07/07 09:13:37;;;;;;;5.10;1.67;;;24.80;47.70;;;;;;5076045;28;20025;-49
2021/07/07 09:16:08;;;;;;;6.40;1.38;;;24.00;48.50;;;;;;5076323;28;20042;-53
2021/07/07 09:18:34;;;;;;;3.92;1.80;;;23.40;49.30;;;;;;5094580;28;20020;-49
2021/07/07 09:21:01;;;;;;;9.02;3.08;;;24.30;47.60;;;;;;5075950;28;20020;-50
2021/07/07 09:23:28;;;;;;;9.52;3.03;;;24.70;46.50;;;;;;5076370;28;20353;-47
2021/07/07 09:26:00;;;;;;;5.93;1.92;;;24.80;46.00;;;;;;5075855;28;20357;-48
2021/07/07 09:28:27;;;;;;;7.38;1.95;;;24.80;46.40;;;;;;5094425;28;20555;-51
2021/07/07 09:30:56;;;;;;;8.55;2.35;;;25.40;45.10;;;;;;5093679;28;20016;-49
2021/07/07 09:33:22;;;;;;;6.10;1.73;;;25.60;43.00;;;;;;5094192;28;20039;-49
2021/07/07 09:35:50;;;;;;;5.47;1.80;;;24.10;46.50;;;;;;5075770;28;20483;-50
2021/07/07 09:38:19;;;;;;;7.75;1.80;;;24.00;46.70;;;;;;5075511;28;20039;-52
2021/07/07 09:40:45;;;;;;;10.07;2.42;;;23.00;49.60;;;;;;5093897;28;20486;-48
2021/07/07 09:43:12;;;;;;;4.25;1.80;;;24.60;45.20;;;;;;5075232;28;20028;-50
2021/07/07 09:45:43;;;;;;;5.40;1.67;;;25.00;44.90;;;;;;5075410;28;20073;-51
2021/07/07 09:48:14;;;;;;;7.43;2.10;;;25.20;44.50;;;;;;5093288;28;20138;-48
2021/07/07 09:50:43;;;;;;;8.30;2.00;;;24.00;45.80;;;;;;5075426;28;20513;-48
2021/07/07 09:53:14;;;;;;;8.35;2.42;;;23.90;46.70;;;;;;5059136;28;20028;-48
2021/07/07 09:55:43;;;;;;;7.10;2.42;;;24.60;45.80;;;;;;5059113;28;20020;-48
2021/07/07 09:58:09;;;;;;;6.75;1.60;;;24.70;46.10;;;;;;5075554;28;20020;-51
2021/07/07 10:00:38;;;;;;;5.95;1.55;;;25.10;42.70;;;;;;5076602;28;20090;-51
2021/07/07 10:03:05;;;;;;;8.95;2.30;;;25.40;42.40;;;;;;5093791;28;20040;-49
2021/07/07 10:05:40;;;;;;;5.78;2.25;;;25.80;42.40;;;;;;5093689;28;20082;-49
2021/07/07 10:08:07;;;;;;;7.10;2.10;;;25.00;44.30;;;;;;5092749;28;20020;-47
2021/07/07 10:10:34;;;;;;;5.85;2.40;;;25.80;42.40;;;;;;5074985;28;20123;-51
2021/07/07 10:13:00;;;;;;;6.07;2.00;;;25.70;43.00;;;;;;5074203;28;20107;-52
2021/07/07 10:15:27;;;;;;;9.10;2.17;;;24.50;44.40;;;;;;5076316;28;20066;-47
2021/07/07 10:17:54;;;;;;;7.72;1.80;;;24.30;45.00;;;;;;5075240;28;20422;-49
2021/07/07 10:20:23;;;;;;;4.75;1.70;;;24.30;45.80;;;;;;5074354;28;20488;-48
2021/07/07 10:22:51;;;;;;;8.43;2.42;;;23.90;46.10;;;;;;5058364;28;20511;-47
2021/07/07 10:25:32;;;;;;;6.28;1.55;;;23.50;47.40;;;;;;5092689;28;20110;-50
2021/07/07 10:28:10;;;;;;;7.90;2.03;;;23.20;49.30;;;;;;5075552;28;20024;-49
2021/07/07 10:30:54;;;;;;;5.18;1.77;;;23.20;48.90;;;;;;5093388;28;20426;-49
2021/07/07 10:33:21;;;;;;;5.03;1.80;;;22.90;49.10;;;;;;5093873;28;20075;-48
2021/07/07 10:35:48;;;;;;;6.90;1.95;;;23.00;49.50;;;;;;5074078;28;20083;-49
2021/07/07 10:38:15;;;;;;;10.43;1.50;;;22.80;50.10;;;;;;5092919;28;20027;-48
2021/07/07 10:40:49;;;;;;;5.10;1.77;;;22.60;51.10;;;;;;5092713;28;20028;-51
2021/07/07 10:43:42;;;;;;;5.90;2.15;;;22.40;51.00;;;;;;5074506;28;20063;-49
2021/07/07 10:46:08;;;;;;;7.00;1.95;;;22.60;51.20;;;;;;5092952;28;20089;-48
2021/07/07 10:48:34;;;;;;;5.72;1.85;;;22.70;50.80;;;;;;5074543;28;20028;-50
2021/07/07 10:51:21;;;;;;;9.70;2.30;;;23.00;49.90;;;;;;5093281;28;20016;-36
2021/07/07 10:53:47;;;;;;;4.88;1.65;;;23.60;48.40;;;;;;5093456;28;20046;-36
2021/07/07 10:56:13;;;;;;;7.72;2.95;;;24.70;45.20;;;;;;5058593;28;20047;-37
2021/07/07 10:58:41;;;;;;;4.65;1.80;;;24.90;44.90;;;;;;5074109;28;20020;-37
2021/07/07 11:01:39;;;;;;;1.83;1.40;;;25.80;44.00;;;;;;5073398;28;20031;-39
2021/07/07 11:04:05;;;;;;;6.68;2.20;;;25.90;43.70;;;;;;5083059;28;20058;-37
2021/07/07 11:06:37;;;;;;;4.72;1.88;;;25.30;43.10;;;;;;5073866;28;20074;-37
2021/07/07 11:09:11;;;;;;;3.45;2.00;;;25.80;43.80;;;;;;5073813;28;20020;-37
2021/07/07 11:11:38;;;;;;;6.53;2.08;;;25.30;44.90;;;;;;5092978;28;20024;-37
2021/07/07 11:14:11;;;;;;;5.97;2.03;;;24.30;47.00;;;;;;5091917;28;20059;-37
2021/07/07 11:16:45;;;;;;;7.45;2.10;;;23.20;49.90;;;;;;5091940;28;20020;-38
2021/07/07 11:19:46;;;;;;;6.70;2.00;;;23.30;50.10;;;;;;5073853;28;20103;-36
2021/07/07 11:22:15;;;;;;;4.00;2.30;;;24.30;48.30;;;;;;5073685;28;20030;-38
2021/07/07 11:24:50;;;;;;;4.22;2.03;;;24.10;48.60;;;;;;5096297;28;20024;-37
2021/07/07 11:27:16;;;;;;;9.30;2.33;;;23.70;49.60;;;;;;5096463;28;20456;-37
2021/07/07 11:29:43;;;;;;;5.00;2.22;;;23.30;51.40;;;;;;5060922;28;20379;-37
2021/07/07 11:32:22;;;;;;;7.68;2.30;;;23.30;51.10;;;;;;5077409;28;20123;-41
2021/07/07 11:34:59;;;;;;;5.97;2.20;;;23.50;50.80;;;;;;5077098;28;20583;-36
2021/07/07 11:37:27;;;;;;;8.73;2.28;;;23.90;50.10;;;;;;5095910;28;20479;-37
2021/07/07 11:40:07;;;;;;;7.47;2.63;;;24.70;47.80;;;;;;5096064;28;20028;-37
2021/07/07 11:42:54;;;;;;;12.02;2.60;;;24.30;48.80;;;;;;5078992;28;20020;-37
2021/07/07 11:45:34;;;;;;;5.10;1.77;;;23.70;49.00;;;;;;5078073;28;20115;-38
2021/07/07 11:50:33;;;;;;;9.63;2.42;;;23.30;52.40;;;;;;5096285;28;20027;-38
2021/07/07 11:53:05;;;;;;;7.93;2.20;;;23.70;50.30;;;;;;5096353;28;20024;-37
2021/07/07 11:55:49;;;;;;;6.38;2.25;;;23.80;50.80;;;;;;5095689;28;20027;-37
2021/07/07 11:58:38;;;;;;;4.97;2.10;;;24.00;48.80;;;;;;5095619;28;20028;-36
2021/07/07 12:01:09;;;;;;;11.52;4.95;;;24.30;47.80;;;;;;5097449;28;20546;-37
2021/07/07 12:03:36;;;;;;;4.82;2.05;;;24.80;47.10;;;;;;5096052;28;20032;-36
2021/07/07 12:06:11;;;;;;;9.15;2.30;;;25.00;45.70;;;;;;5081081;28;20032;-37
2021/07/07 12:08:41;;;;;;;6.47;2.00;;;25.70;44.80;;;;;;5077330;28;20114;-36
2021/07/07 12:11:10;;;;;;;6.57;2.08;;;26.70;42.90;;;;;;5095310;28;20032;-37
2021/07/07 12:13:38;;;;;;;5.45;1.73;;;27.20;39.80;;;;;;5095486;28;20024;-37
2021/07/07 12:16:13;;;;;;;5.15;1.30;;;26.10;40.30;;;;;;5095703;28;20103;-37
2021/07/07 12:18:39;;;;;;;6.25;1.88;;;26.10;40.60;;;;;;5095353;28;20099;-36
2021/07/07 12:21:05;;;;;;;5.57;2.13;;;25.70;42.20;;;;;;5076854;28;20119;-36
2021/07/07 12:23:30;;;;;;;4.20;1.90;;;26.10;40.80;;;;;;5095191;28;20063;-36
2021/07/07 12:26:03;;;;;;;4.00;1.38;;;26.20;40.20;;;;;;5096198;28;20024;-37
2021/07/07 12:28:30;;;;;;;9.65;1.75;;;25.60;40.60;;;;;;5094846;28;20039;-38
2021/07/07 12:30:57;;;;;;;2.20;1.45;;;25.80;41.30;;;;;;5094725;28;20059;-37
2021/07/07 12:33:24;;;;;;;4.40;2.38;;;26.00;40.30;;;;;;5094982;28;20016;-38
2021/07/07 12:35:50;;;;;;;7.50;1.98;;;25.80;39.80;;;;;;5094738;28;20078;-37
2021/07/07 12:38:15;;;;;;;5.13;2.03;;;24.80;42.40;;;;;;5094907;28;20454;-38
2021/07/07 12:40:41;;;;;;;5.05;1.90;;;25.70;41.00;;;;;;5094478;28;20379;-37
2021/07/07 12:43:15;;;;;;;6.05;2.67;;;26.50;39.50;;;;;;5095168;28;20452;-38
2021/07/07 12:45:41;;;;;;;7.25;1.85;;;26.80;39.10;;;;;;5094834;28;20077;-38
2021/07/07 12:48:08;;;;;;;6.20;1.88;;;27.30;37.60;;;;;;5075982;28;20387;-37
2021/07/07 12:50:37;;;;;;;4.25;1.88;;;26.60;38.90;;;;;;5094405;28;20024;-36